This is the latest recevied weather packets stored in our database for station/object OH6NMY. If no packets are shown the sender has not sent any weather packets the latest 10 day(s).
| Time | Temp. | Humidity | Pressure | Rain* | Wind** | Luminosity | Snow |
|---|---|---|---|---|---|---|---|
| 1777274384 | 4.44° C | 61% | 1017.3 hPa | 0 mm | - | - | - |
| 1777271553 | 3.33° C | 69% | 1017 hPa | 0 mm | - | - | - |
| 1777271013 | 3.33° C | 71% | 1016.8 hPa | 0 mm | - | - | - |
| 1777267773 | 1.67° C | 84% | 1016.7 hPa | 0 mm | - | - | - |
| 1777264533 | 0° C | 90% | 1016.3 hPa | 0 mm | - | - | - |
| 1777263453 | -0.56° C | 91% | 1015.9 hPa | 0 mm | - | - | - |
| 1777262373 | -0.56° C | 92% | 1016.1 hPa | 0 mm | - | - | - |
| 1777260213 | -1.67° C | 94% | 1015.7 hPa | 0 mm | - | - | - |
| 1777258593 | -1.67° C | 94% | 1015.4 hPa | 0 mm | - | - | - |
| 1777257514 | -1.67° C | 94% | 1015.6 hPa | 0 mm | - | - | - |
| 1777251573 | -1.11° C | 95% | 1015 hPa | 0 mm | - | - | - |
| 1777251033 | -1.11° C | 95% | 1014.6 hPa | 0 mm | - | - | - |
| 1777247793 | -1.67° C | 94% | 1014.5 hPa | 0 mm | - | - | - |
| 1777242393 | -1.11° C | 90% | 1014.4 hPa | 0 mm | - | - | - |
| 1777238613 | -1.11° C | 83% | 1014.2 hPa | 0 mm | - | - | - |
| 1777235373 | 0° C | 78% | 1013.9 hPa | 0 mm | - | - | - |
| 1777229974 | 0.56° C | 62% | 1013.3 hPa | 0 mm | - | - | - |
| 1777226865 | 2.22° C | 55% | 1012.6 hPa | 0 mm | - | - | - |
| 1777222953 | 3.89° C | 48% | 1011.6 hPa | 0 mm | - | - | - |
| 1777222413 | 3.89° C | 50% | 1011.4 hPa | 0 mm | - | - | - |
| 1777221873 | 3.89° C | 51% | 1011.5 hPa | 0 mm | - | - | - |
| 1777220793 | 4.44° C | 56% | 1011.2 hPa | 0 mm | - | - | - |
| 1777220253 | 5° C | 52% | 1011.5 hPa | 0 mm | - | - | - |
| 1777219713 | 4.44° C | 54% | 1011 hPa | 0 mm | - | - | - |
| 1777216067 | 5° C | 54% | 1010.6 hPa | 0 mm | - | - | - |
* Rain latest hour (hover to see other rain measurements)
** Current wind speed in m/s (hover to see current wind gust speed)